Time,TemperatureF,DewpointF,PressureIn,WindDirection,WindDirectionDegrees,WindSpeedMPH,WindSpeedGustMPH,Humidity,HourlyPrecipIn,Conditions,Clouds,dailyrainin,SoftwareType,DateUTC
2013-07-08 00:03:00,65.6,-99.9,-100.00,West,270,0.0,4.0,-999,0.13,,,-99.99,WeatherLink 5.4,2013-07-08 04:03:00,
2013-07-08 00:33:00,66.1,-99.9,-100.00,North,-999,0.0,0.0,-999,0.00,,,-99.99,WeatherLink 5.4,2013-07-08 04:33:00,
2013-07-08 01:03:00,66.1,-99.9,-100.00,North,-999,0.0,0.0,-999,0.00,,,-99.99,WeatherLink 5.4,2013-07-08 05:03:00,
2013-07-08 01:33:00,66.5,-99.9,-100.00,West,270,0.0,4.0,-999,0.00,,,-99.99,WeatherLink 5.4,2013-07-08 05:33:00,
2013-07-08 02:03:00,66.5,-99.9,-100.00,North,-999,0.0,0.0,-999,0.00,,,-99.99,WeatherLink 5.4,2013-07-08 06:03:00,
2013-07-08 02:33:00,65.9,-99.9,-100.00,West,270,0.0,3.0,-999,0.00,,,-99.99,WeatherLink 5.4,2013-07-08 06:33:00,
2013-07-08 03:03:00,65.6,-99.9,-100.00,North,-999,0.0,0.0,-999,0.00,,,-99.99,WeatherLink 5.4,2013-07-08 07:03:00,
2013-07-08 03:33:00,65.6,-99.9,-100.00,North,-999,0.0,0.0,-999,0.00,,,-99.99,WeatherLink 5.4,2013-07-08 07:33:00,
2013-07-08 04:03:00,65.5,-99.9,-100.00,West,270,0.0,4.0,-999,0.00,,,-99.99,WeatherLink 5.4,2013-07-08 08:03:00,
2013-07-08 04:33:00,65.0,-99.9,-100.00,WSW,247,1.0,6.0,-999,0.00,,,-99.99,WeatherLink 5.4,2013-07-08 08:33:00,
2013-07-08 05:03:00,64.5,-99.9,-100.00,SW,225,1.0,6.0,-999,0.00,,,-99.99,WeatherLink 5.4,2013-07-08 09:03:00,
2013-07-08 05:33:00,64.3,-99.9,-100.00,SW,225,1.0,8.0,-999,0.00,,,-99.99,WeatherLink 5.4,2013-07-08 09:33:00,
2013-07-08 06:03:00,64.1,-99.9,-100.00,WSW,247,1.0,5.0,-999,0.00,,,-99.99,WeatherLink 5.4,2013-07-08 10:03:00,
2013-07-08 06:33:00,63.9,-99.9,-100.00,WSW,247,0.0,3.0,-999,0.00,,,-99.99,WeatherLink 5.4,2013-07-08 10:33:00,
2013-07-08 07:03:00,64.2,-99.9,-100.00,North,-999,0.0,0.0,-999,0.00,,,-99.99,WeatherLink 5.4,2013-07-08 11:03:00,
2013-07-08 07:33:00,64.2,-99.9,-100.00,WSW,247,0.0,4.0,-999,0.00,,,-99.99,WeatherLink 5.4,2013-07-08 11:33:00,
2013-07-08 08:03:00,64.4,-99.9,-100.00,SW,225,2.0,6.0,-999,0.00,,,-99.99,WeatherLink 5.4,2013-07-08 12:03:00,
2013-07-08 08:33:00,65.1,-99.9,-100.00,SW,225,1.0,6.0,-999,0.00,,,-99.99,WeatherLink 5.4,2013-07-08 12:33:00,
2013-07-08 09:03:00,66.3,-99.9,-100.00,SW,225,1.0,7.0,-999,0.00,,,-99.99,WeatherLink 5.4,2013-07-08 13:03:00,
2013-07-08 09:33:00,67.5,-99.9,-100.00,SW,225,2.0,9.0,-999,0.00,,,-99.99,WeatherLink 5.4,2013-07-08 13:33:00,
2013-07-08 10:04:00,69.3,-99.9,-100.00,SW,225,1.0,7.0,-999,0.00,,,-99.99,WeatherLink 5.4,2013-07-08 14:04:00,
2013-07-08 10:33:00,70.9,-99.9,-100.00,SW,225,1.0,6.0,-999,0.00,,,-99.99,WeatherLink 5.4,2013-07-08 14:33:00,
2013-07-08 11:03:00,73.1,-99.9,-100.00,WSW,247,2.0,8.0,-999,0.00,,,-99.99,WeatherLink 5.4,2013-07-08 15:03:00,
2013-07-08 11:33:00,74.6,-99.9,-100.00,WSW,247,2.0,9.0,-999,0.00,,,-99.99,WeatherLink 5.4,2013-07-08 15:33:00,
2013-07-08 12:03:00,75.7,-99.9,-100.00,SW,225,2.0,10.0,-999,0.00,,,-99.99,WeatherLink 5.4,2013-07-08 16:03:00,
2013-07-08 12:33:00,77.0,-99.9,-100.00,SW,225,2.0,7.0,-999,0.00,,,-99.99,WeatherLink 5.4,2013-07-08 16:33:00,
2013-07-08 13:03:00,79.8,-99.9,-100.00,SW,225,3.0,9.0,-999,0.00,,,-99.99,WeatherLink 5.4,2013-07-08 17:03:00,
2013-07-08 14:03:00,86.5,-99.9,-100.00,SW,225,3.0,10.0,-999,0.00,,,-99.99,WeatherLink 5.4,2013-07-08 18:03:00,
2013-07-08 15:03:00,83.1,-99.9,-100.00,SW,225,4.0,12.0,-999,0.00,,,-99.99,WeatherLink 5.4,2013-07-08 19:03:00,
2013-07-08 15:33:00,82.4,-99.9,-100.00,SW,225,2.0,8.0,-999,0.00,,,-99.99,WeatherLink 5.4,2013-07-08 19:33:00,
2013-07-08 16:03:00,83.2,-99.9,-100.00,SW,225,4.0,12.0,-999,0.00,,,-99.99,WeatherLink 5.4,2013-07-08 20:03:00,
2013-07-08 16:30:00,83.2,-99.9,-100.00,SW,225,4.0,12.0,-999,0.00,,,-99.99,WeatherLink 5.4,2013-07-08 20:30:00,
2013-07-08 17:04:00,83.1,-99.9,-100.00,SW,225,3.0,11.0,-999,0.00,,,-99.99,WeatherLink 5.4,2013-07-08 21:04:00,
2013-07-08 18:03:00,81.5,-99.9,-100.00,SW,225,1.0,7.0,-999,0.00,,,-99.99,WeatherLink 5.4,2013-07-08 22:03:00,
2013-07-08 18:33:00,81.2,-99.9,-100.00,SW,225,1.0,7.0,-999,0.00,,,-99.99,WeatherLink 5.4,2013-07-08 22:33:00,
2013-07-08 19:00:00,80.2,-99.9,-100.00,SW,225,1.0,7.0,-999,0.00,,,-99.99,WeatherLink 5.4,2013-07-08 23:00:00,
2013-07-08 19:33:00,73.9,-99.9,-100.00,WSW,247,4.0,14.0,-999,0.12,,,-99.99,WeatherLink 5.4,2013-07-08 23:33:00,
2013-07-08 20:03:00,70.8,-99.9,-100.00,North,-999,0.0,1.0,-999,0.00,,,-99.99,WeatherLink 5.4,2013-07-09 00:03:00,
2013-07-08 20:33:00,70.8,-99.9,-100.00,North,-999,0.0,1.0,-999,0.00,,,-99.99,WeatherLink 5.4,2013-07-09 00:33:00,
2013-07-08 21:30:00,69.8,-99.9,-100.00,WSW,247,0.0,7.0,-999,0.50,,,-99.99,WeatherLink 5.4,2013-07-09 01:30:00,
2013-07-08 21:33:00,69.8,-99.9,-100.00,WSW,247,0.0,7.0,-999,0.50,,,-99.99,WeatherLink 5.4,2013-07-09 01:33:00,
2013-07-08 22:03:00,68.0,-99.9,-100.00,West,270,0.0,3.0,-999,1.23,,,-99.99,WeatherLink 5.4,2013-07-09 02:03:00,
2013-07-08 22:33:00,67.8,-99.9,-100.00,North,-999,0.0,0.0,-999,0.05,,,-99.99,WeatherLink 5.4,2013-07-09 02:33:00,
2013-07-08 23:30:00,67.5,-99.9,-100.00,North,-999,0.0,0.0,-999,0.01,,,-99.99,WeatherLink 5.4,2013-07-09 03:30:00,